Time;durP1;ratioP1;P1;durP2;ratioP2;P2;SDS_P1;SDS_P2;PMS_P1;PMS_P2;Temp;Humidity;BMP_temperature;BMP_pressure;BME280_temperature;BME280_humidity;BME280_pressure;Samples;Min_cycle;Max_cycle;Signal;HPM_P1;HPM_P2
2023/07/18 00:00:37;;;;;;;11.98;4.45;;;15.30;99.90;;;;;;5009171;28;20054;-84
2023/07/18 00:03:04;;;;;;;14.23;4.25;;;15.20;99.90;;;;;;5026957;28;20072;-86
2023/07/18 00:05:31;;;;;;;8.75;3.42;;;15.30;99.90;;;;;;5027387;28;20068;-82
2023/07/18 00:07:56;;;;;;;10.93;3.55;;;15.20;99.90;;;;;;5026590;28;20042;-82
2023/07/18 00:10:23;;;;;;;8.07;3.97;;;15.40;99.90;;;;;;5026961;28;20148;-83
2023/07/18 00:12:49;;;;;;;8.75;3.65;;;15.20;99.90;;;;;;5026888;28;20056;-83
2023/07/18 00:15:15;;;;;;;11.35;3.67;;;15.20;99.90;;;;;;5025714;28;20037;-86
2023/07/18 00:17:41;;;;;;;11.30;4.10;;;15.20;99.90;;;;;;5024679;28;20046;-85
2023/07/18 00:20:09;;;;;;;10.82;4.05;;;15.20;99.90;;;;;;5027316;28;20044;-82
2023/07/18 00:22:36;;;;;;;14.27;3.83;;;15.20;99.90;;;;;;5021619;28;20438;-85
2023/07/18 00:25:02;;;;;;;8.48;4.28;;;15.50;99.90;;;;;;5018534;28;20062;-81
2023/07/18 00:27:29;;;;;;;12.18;4.03;;;15.20;99.90;;;;;;5023706;28;20053;-80
2023/07/18 00:29:55;;;;;;;8.88;4.00;;;15.10;99.90;;;;;;5019457;28;20474;-83
2023/07/18 00:32:22;;;;;;;8.50;3.75;;;15.10;99.90;;;;;;4677579;28;10000114;-83
2023/07/18 00:34:50;;;;;;;12.80;4.43;;;15.10;99.90;;;;;;5022731;28;20033;-84
2023/07/18 00:37:17;;;;;;;10.05;4.20;;;15.10;99.90;;;;;;5026951;28;20037;-80
2023/07/18 00:39:42;;;;;;;9.70;3.83;;;15.30;99.90;;;;;;5027208;28;20037;-74
2023/07/18 00:42:08;;;;;;;8.25;3.97;;;15.10;99.90;;;;;;5010555;28;20049;-78
2023/07/18 00:44:33;;;;;;;11.95;5.90;;;15.00;99.90;;;;;;5024820;28;20045;-75
2023/07/18 00:47:00;;;;;;;13.43;6.18;;;15.00;99.90;;;;;;5005440;28;20041;-77
2023/07/18 00:49:26;;;;;;;8.43;4.93;;;15.00;99.90;;;;;;5019918;28;20038;-78
2023/07/18 00:51:52;;;;;;;9.57;4.38;;;15.00;99.90;;;;;;5001682;28;20041;-78
2023/07/18 00:54:20;;;;;;;9.20;4.32;;;15.00;99.90;;;;;;5018203;28;20118;-75
2023/07/18 00:56:46;;;;;;;8.95;4.03;;;15.00;99.90;;;;;;5016219;28;20046;-78
2023/07/18 00:59:16;;;;;;;12.23;4.03;;;14.90;99.90;;;;;;5025194;28;20037;-75
2023/07/18 01:01:42;;;;;;;12.10;4.00;;;14.90;99.90;;;;;;5020071;28;20052;-75
2023/07/18 01:04:08;;;;;;;8.50;3.55;;;14.90;99.90;;;;;;5019422;28;20050;-76
2023/07/18 01:06:35;;;;;;;12.73;3.75;;;14.80;99.90;;;;;;5025416;28;20069;-77
2023/07/18 01:09:01;;;;;;;10.07;4.07;;;14.90;99.90;;;;;;4991005;28;20048;-76
2023/07/18 01:11:27;;;;;;;10.23;4.22;;;14.80;99.90;;;;;;4999562;28;20046;-75
2023/07/18 01:13:52;;;;;;;11.45;4.00;;;14.80;99.90;;;;;;5015954;28;20077;-75
2023/07/18 01:16:18;;;;;;;11.60;4.47;;;14.80;99.90;;;;;;5017518;28;20454;-75
2023/07/18 01:18:44;;;;;;;8.50;3.53;;;14.80;99.90;;;;;;5019391;28;20437;-77
2023/07/18 01:21:21;;;;;;;12.63;4.75;;;14.80;99.90;;;;;;5020141;28;20162;-75
2023/07/18 01:23:47;;;;;;;7.93;3.80;;;14.80;99.90;;;;;;5015983;28;20054;-75
2023/07/18 01:26:13;;;;;;;8.93;3.72;;;14.80;99.90;;;;;;5016492;28;20457;-79
2023/07/18 01:28:39;;;;;;;8.15;3.30;;;14.70;99.90;;;;;;5019974;28;20486;-76
2023/07/18 01:31:05;;;;;;;19.70;4.50;;;14.70;99.90;;;;;;5019174;28;20104;-79
2023/07/18 01:33:31;;;;;;;8.02;3.65;;;14.70;99.90;;;;;;5016876;28;20057;-74
2023/07/18 01:35:57;;;;;;;9.35;3.67;;;14.70;99.90;;;;;;5003830;28;20524;-77
2023/07/18 01:38:29;;;;;;;10.82;3.92;;;14.70;99.90;;;;;;5027294;28;20068;-78
2023/07/18 01:40:55;;;;;;;9.90;4.30;;;14.70;99.90;;;;;;5026710;28;20401;-75
2023/07/18 01:43:22;;;;;;;13.45;4.68;;;14.70;99.90;;;;;;5026428;28;20080;-78
2023/07/18 01:45:48;;;;;;;15.07;4.38;;;14.70;99.90;;;;;;5015417;28;20046;-76
2023/07/18 01:48:13;;;;;;;15.30;4.18;;;14.60;99.90;;;;;;5016710;28;20404;-77
2023/07/18 01:50:40;;;;;;;7.68;3.67;;;14.60;99.90;;;;;;5020282;28;20033;-76
2023/07/18 01:53:06;;;;;;;13.88;4.20;;;14.60;99.90;;;;;;5018849;28;20103;-75
2023/07/18 01:55:32;;;;;;;11.35;3.67;;;14.60;99.90;;;;;;5025198;28;20452;-79
2023/07/18 01:57:57;;;;;;;8.68;4.50;;;14.60;99.90;;;;;;4999023;28;20054;-78
2023/07/18 02:00:24;;;;;;;11.38;4.38;;;14.60;99.90;;;;;;5020353;28;20037;-78
2023/07/18 02:02:53;;;;;;;13.32;3.95;;;14.60;99.90;;;;;;5023223;28;20099;-75
2023/07/18 02:05:21;;;;;;;10.38;4.40;;;14.60;99.90;;;;;;5022323;28;20179;-75
2023/07/18 02:07:47;;;;;;;9.18;3.70;;;14.60;99.90;;;;;;5019016;28;20102;-78
2023/07/18 02:10:15;;;;;;;10.98;3.88;;;15.80;99.90;;;;;;5002120;28;20046;-76
2023/07/18 02:12:40;;;;;;;9.88;3.67;;;14.60;99.90;;;;;;5031067;28;20056;-78
2023/07/18 02:15:07;;;;;;;11.00;3.58;;;14.60;99.90;;;;;;5029501;28;20041;-76
2023/07/18 02:17:33;;;;;;;8.48;3.92;;;14.50;99.90;;;;;;5030749;28;20042;-78
2023/07/18 02:19:59;;;;;;;12.10;3.40;;;15.90;99.90;;;;;;5030865;28;20056;-75
2023/07/18 02:22:25;;;;;;;7.90;3.85;;;14.50;99.90;;;;;;5029960;28;20045;-77
2023/07/18 02:24:50;;;;;;;8.77;3.70;;;14.50;99.90;;;;;;5002036;28;20370;-76
2023/07/18 02:27:18;;;;;;;10.07;3.67;;;14.50;99.90;;;;;;4983550;28;20042;-75
2023/07/18 02:29:46;;;;;;;6.38;3.30;;;14.50;99.90;;;;;;5001671;28;20735;-75
2023/07/18 02:32:13;;;;;;;12.68;4.53;;;14.50;99.90;;;;;;4992273;28;20068;-75
2023/07/18 02:34:39;;;;;;;13.15;3.85;;;14.50;99.90;;;;;;4999001;28;20042;-76
2023/07/18 02:37:05;;;;;;;13.18;4.30;;;14.50;99.90;;;;;;4999991;28;20057;-78
2023/07/18 02:39:34;;;;;;;8.02;3.72;;;15.70;99.90;;;;;;4992173;28;20039;-75
2023/07/18 02:41:59;;;;;;;11.00;4.07;;;15.10;99.90;;;;;;4991811;28;20046;-75
2023/07/18 02:44:25;;;;;;;8.32;3.60;;;14.70;99.90;;;;;;5009544;28;20046;-75
2023/07/18 02:46:51;;;;;;;9.45;4.05;;;14.50;99.90;;;;;;4998767;28;20043;-76
2023/07/18 02:49:16;;;;;;;12.63;3.85;;;14.50;99.90;;;;;;5002995;28;20099;-77
2023/07/18 02:51:42;;;;;;;9.70;4.00;;;14.50;99.90;;;;;;4999056;28;20502;-75
2023/07/18 02:54:08;;;;;;;10.60;3.70;;;15.10;99.90;;;;;;5001413;28;20125;-78
2023/07/18 02:56:34;;;;;;;13.38;4.28;;;14.60;99.90;;;;;;4997799;28;20042;-77
2023/07/18 02:59:01;;;;;;;11.60;3.60;;;14.80;99.90;;;;;;5003348;28;20393;-78
2023/07/18 03:01:27;;;;;;;10.52;3.33;;;14.40;99.90;;;;;;4998714;28;20072;-75
2023/07/18 03:03:54;;;;;;;13.77;4.25;;;14.40;99.90;;;;;;4999061;28;20487;-75
2023/07/18 03:06:19;;;;;;;12.68;3.63;;;14.40;99.90;;;;;;5002291;28;20046;-78
2023/07/18 03:08:45;;;;;;;9.50;4.25;;;14.40;99.90;;;;;;5001555;28;20037;-75
2023/07/18 03:11:11;;;;;;;12.95;4.93;;;14.80;99.90;;;;;;4994445;28;20046;-75
2023/07/18 03:13:36;;;;;;;12.20;4.47;;;14.40;99.90;;;;;;4996794;28;20038;-77
2023/07/18 03:16:04;;;;;;;10.57;4.15;;;14.30;99.90;;;;;;5000376;28;20085;-77
2023/07/18 03:18:30;;;;;;;14.90;4.65;;;14.30;99.90;;;;;;4994025;28;20045;-74
2023/07/18 03:20:56;;;;;;;10.60;4.35;;;14.30;99.90;;;;;;4997956;28;20533;-76
2023/07/18 03:23:21;;;;;;;9.80;4.47;;;14.20;99.90;;;;;;5006820;28;20092;-75
2023/07/18 03:25:48;;;;;;;14.35;4.95;;;14.30;99.90;;;;;;4998644;28;20044;-74
2023/07/18 03:28:14;;;;;;;14.70;4.50;;;14.30;99.90;;;;;;4990020;28;20033;-76
2023/07/18 03:30:40;;;;;;;9.68;4.15;;;14.30;99.90;;;;;;5017458;28;20053;-78
2023/07/18 03:33:06;;;;;;;9.20;4.10;;;14.20;99.90;;;;;;4985583;28;20129;-78
2023/07/18 03:35:32;;;;;;;9.82;3.83;;;14.30;99.90;;;;;;5003844;28;20049;-76
2023/07/18 03:37:58;;;;;;;8.98;3.67;;;14.30;99.90;;;;;;5019789;28;20111;-77
2023/07/18 03:40:24;;;;;;;8.43;3.92;;;14.30;99.90;;;;;;5018798;28;20472;-75
2023/07/18 03:42:49;;;;;;;11.55;3.92;;;14.30;99.90;;;;;;5014311;28;20565;-77
2023/07/18 03:45:16;;;;;;;9.75;4.13;;;14.30;99.90;;;;;;5016573;28;20038;-76
2023/07/18 03:47:42;;;;;;;8.82;3.88;;;14.30;99.90;;;;;;4999837;28;20041;-74
2023/07/18 03:50:11;;;;;;;7.78;3.72;;;14.30;99.90;;;;;;5020255;28;20038;-75
2023/07/18 03:52:37;;;;;;;8.68;3.20;;;14.30;99.90;;;;;;5020737;28;20511;-74
2023/07/18 03:55:04;;;;;;;10.80;4.05;;;14.30;99.90;;;;;;5020968;28;20045;-76
2023/07/18 03:57:34;;;;;;;10.88;4.35;;;14.30;99.90;;;;;;5019570;28;20045;-76
2023/07/18 04:00:00;;;;;;;11.43;3.95;;;14.30;99.90;;;;;;5002931;28;20412;-75
2023/07/18 04:02:26;;;;;;;12.02;4.40;;;14.20;99.90;;;;;;5017305;28;20045;-75
2023/07/18 04:04:52;;;;;;;12.25;3.72;;;14.30;99.90;;;;;;5017189;28;20472;-77
2023/07/18 04:07:20;;;;;;;10.00;4.07;;;14.30;99.90;;;;;;5020008;28;20576;-77
2023/07/18 04:09:45;;;;;;;10.65;4.22;;;14.50;99.90;;;;;;5020687;28;20053;-77
2023/07/18 04:12:13;;;;;;;11.32;3.53;;;14.30;99.90;;;;;;5019145;28;20041;-74
2023/07/18 04:14:41;;;;;;;10.35;3.60;;;14.30;99.90;;;;;;5016439;28;20449;-76
2023/07/18 04:17:07;;;;;;;14.95;4.28;;;14.30;99.90;;;;;;5016440;28;20073;-78
2023/07/18 04:19:32;;;;;;;10.88;3.42;;;14.30;99.90;;;;;;5020932;28;20073;-78
2023/07/18 04:21:58;;;;;;;13.13;4.32;;;14.20;99.90;;;;;;5020202;28;20342;-76
2023/07/18 04:24:24;;;;;;;14.40;4.13;;;14.20;99.90;;;;;;5008873;28;20045;-75
2023/07/18 04:26:50;;;;;;;11.02;3.83;;;14.30;99.90;;;;;;5019977;28;20100;-78
2023/07/18 04:29:17;;;;;;;22.38;10.27;;;14.30;99.90;;;;;;5009223;28;20053;-75
2023/07/18 04:31:42;;;;;;;13.38;4.97;;;14.30;99.90;;;;;;5003594;28;20045;-74
2023/07/18 04:34:08;;;;;;;10.20;4.85;;;14.30;99.90;;;;;;4996020;28;20410;-75
2023/07/18 04:36:34;;;;;;;12.23;3.80;;;14.30;99.90;;;;;;5019415;28;20033;-75
2023/07/18 04:38:59;;;;;;;9.23;4.28;;;15.00;99.90;;;;;;5017110;28;20041;-77
2023/07/18 04:41:25;;;;;;;14.00;4.30;;;14.30;99.90;;;;;;5019270;28;20076;-77
2023/07/18 04:43:51;;;;;;;12.88;4.22;;;14.30;99.90;;;;;;5011761;28;20034;-74
2023/07/18 04:46:16;;;;;;;12.43;4.35;;;14.30;99.90;;;;;;4997533;28;20042;-77
2023/07/18 04:48:42;;;;;;;14.70;4.25;;;14.30;99.90;;;;;;5019157;28;20044;-74
2023/07/18 04:51:08;;;;;;;9.82;3.92;;;14.30;99.90;;;;;;5017863;28;20042;-74
2023/07/18 04:53:33;;;;;;;14.32;4.30;;;14.40;99.90;;;;;;5018615;28;20091;-75
2023/07/18 04:56:00;;;;;;;12.65;4.20;;;14.40;99.90;;;;;;5015896;28;20057;-76
2023/07/18 04:58:27;;;;;;;10.40;3.80;;;14.40;99.90;;;;;;5004850;28;20045;-79
2023/07/18 05:00:55;;;;;;;10.82;4.03;;;14.40;99.90;;;;;;5020450;28;20113;-79
2023/07/18 05:03:21;;;;;;;14.55;5.38;;;14.50;99.90;;;;;;5014163;28;20548;-73
2023/07/18 05:05:47;;;;;;;9.50;4.13;;;14.60;99.90;;;;;;4998194;28;20070;-79
2023/07/18 05:08:13;;;;;;;17.90;8.38;;;14.40;99.90;;;;;;4985020;28;20140;-79
2023/07/18 05:10:39;;;;;;;30.10;16.58;;;14.50;99.90;;;;;;5000456;28;20183;-79
2023/07/18 05:13:05;;;;;;;16.67;7.97;;;14.60;99.90;;;;;;5016108;28;20049;-79
2023/07/18 05:15:30;;;;;;;13.93;4.85;;;14.50;99.90;;;;;;5012459;28;20037;-78
2023/07/18 05:17:56;;;;;;;10.65;4.13;;;14.50;99.90;;;;;;5017427;28;20045;-79
2023/07/18 05:20:22;;;;;;;14.88;5.43;;;14.50;99.90;;;;;;5010959;28;20045;-79
2023/07/18 05:22:47;;;;;;;11.65;4.38;;;14.60;99.90;;;;;;5016459;28;20044;-78
2023/07/18 05:25:14;;;;;;;15.38;5.03;;;14.60;99.90;;;;;;4996351;28;20081;-77
2023/07/18 05:27:41;;;;;;;9.32;5.03;;;14.60;99.90;;;;;;4996945;28;20045;-79
2023/07/18 05:30:16;;;;;;;16.65;5.18;;;14.60;99.90;;;;;;4992148;28;20038;-77
2023/07/18 05:32:44;;;;;;;10.55;4.63;;;14.60;99.90;;;;;;4996039;28;20091;-74
2023/07/18 05:35:11;;;;;;;14.60;5.18;;;14.60;99.90;;;;;;5002894;28;20072;-75
2023/07/18 05:37:38;;;;;;;12.77;5.28;;;14.60;99.90;;;;;;5023314;28;20037;-78
2023/07/18 05:40:05;;;;;;;12.45;4.70;;;14.60;99.90;;;;;;5021208;28;20370;-77
2023/07/18 05:42:31;;;;;;;9.10;5.05;;;14.60;99.90;;;;;;5019579;28;20037;-78
2023/07/18 05:44:57;;;;;;;13.30;5.55;;;14.60;99.90;;;;;;5014170;28;20053;-75
2023/07/18 05:47:22;;;;;;;12.85;5.25;;;14.70;99.90;;;;;;5025827;28;20092;-77
2023/07/18 05:49:48;;;;;;;10.40;6.57;;;14.70;99.90;;;;;;5017868;28;20394;-75
2023/07/18 05:52:14;;;;;;;20.60;8.60;;;14.70;99.90;;;;;;5023741;28;20038;-76
2023/07/18 05:54:39;;;;;;;17.55;5.82;;;14.70;99.90;;;;;;5019793;28;20041;-76
2023/07/18 05:57:05;;;;;;;19.67;5.53;;;14.70;99.90;;;;;;5000839;28;20477;-76
2023/07/18 05:59:34;;;;;;;13.75;4.82;;;14.80;99.90;;;;;;5022569;28;20477;-73
2023/07/18 06:01:59;;;;;;;11.07;4.25;;;14.80;99.90;;;;;;5022938;28;20398;-76
2023/07/18 06:04:25;;;;;;;14.38;5.00;;;14.80;99.90;;;;;;4986995;28;20056;-75
2023/07/18 06:06:51;;;;;;;11.63;4.80;;;14.90;99.90;;;;;;5027657;28;20052;-78
2023/07/18 06:09:16;;;;;;;14.40;6.03;;;15.20;99.90;;;;;;5026072;28;20090;-84
2023/07/18 06:11:43;;;;;;;14.63;5.78;;;14.90;99.90;;;;;;4320098;28;10000659;-81
2023/07/18 06:14:09;;;;;;;16.08;7.22;;;15.00;99.90;;;;;;5020111;28;20049;-82
2023/07/18 06:16:34;;;;;;;16.73;5.40;;;15.00;99.90;;;;;;5013760;28;20389;-83
2023/07/18 06:19:00;;;;;;;12.95;5.32;;;15.10;99.90;;;;;;5016987;28;20081;-81
2023/07/18 06:21:26;;;;;;;13.48;5.35;;;15.00;99.90;;;;;;5011572;28;20050;-82
2023/07/18 06:23:56;;;;;;;14.98;5.53;;;15.20;99.90;;;;;;4997713;28;20049;-80
2023/07/18 06:26:22;;;;;;;16.95;7.03;;;15.20;99.90;;;;;;5018200;28;20046;-86
2023/07/18 06:28:49;;;;;;;14.45;4.90;;;15.20;99.90;;;;;;5018468;28;20133;-85
2023/07/18 06:31:14;;;;;;;13.02;5.40;;;15.20;99.90;;;;;;5012629;28;20410;-79
2023/07/18 06:33:40;;;;;;;16.27;5.78;;;15.30;99.90;;;;;;5019315;28;20033;-85
2023/07/18 06:36:06;;;;;;;18.88;6.10;;;15.50;99.90;;;;;;5012324;28;20092;-85
2023/07/18 06:38:32;;;;;;;17.10;6.05;;;15.50;99.90;;;;;;5021997;28;20481;-82
2023/07/18 06:40:58;;;;;;;18.10;5.70;;;15.60;99.90;;;;;;5016238;28;20117;-84
2023/07/18 06:43:24;;;;;;;14.45;6.20;;;15.60;99.90;;;;;;5005614;28;20452;-86
2023/07/18 06:45:50;;;;;;;21.33;7.97;;;15.60;99.90;;;;;;5016362;28;20037;-84
2023/07/18 06:48:16;;;;;;;17.95;6.32;;;15.60;99.90;;;;;;5011519;28;20129;-86
2023/07/18 06:50:51;;;;;;;10.93;5.65;;;16.10;99.90;;;;;;5018710;28;20108;-84
2023/07/18 06:53:19;;;;;;;16.90;5.28;;;15.70;99.90;;;;;;4996209;28;20052;-84
2023/07/18 06:55:46;;;;;;;12.57;5.38;;;15.80;99.90;;;;;;5009437;28;20486;-85
2023/07/18 06:58:13;;;;;;;17.40;5.70;;;15.80;99.90;;;;;;5001665;28;20525;-80
2023/07/18 07:00:41;;;;;;;16.35;5.75;;;16.60;99.90;;;;;;5023679;28;20052;-83
2023/07/18 07:03:08;;;;;;;21.02;5.80;;;15.80;99.90;;;;;;4987401;28;20049;-86
2023/07/18 07:05:42;;;;;;;17.92;5.65;;;16.70;99.90;;;;;;5018985;28;20128;-86
2023/07/18 07:08:09;;;;;;;14.98;4.95;;;15.90;99.90;;;;;;4999688;28;20402;-83
2023/07/18 07:10:35;;;;;;;16.88;5.43;;;15.90;99.90;;;;;;5012245;28;20042;-85
2023/07/18 07:13:01;;;;;;;14.50;5.18;;;16.00;99.90;;;;;;5017232;28;20042;-87
2023/07/18 07:15:27;;;;;;;20.08;4.93;;;16.10;99.90;;;;;;5002437;28;20038;-87
2023/07/18 07:17:52;;;;;;;14.13;4.82;;;16.20;99.90;;;;;;5013660;28;20045;-83
2023/07/18 07:20:19;;;;;;;21.00;5.75;;;16.20;99.90;;;;;;5019360;28;20101;-86
2023/07/18 07:22:47;;;;;;;20.50;6.13;;;16.30;99.90;;;;;;5017282;28;20121;-86
2023/07/18 07:25:14;;;;;;;21.35;6.32;;;16.40;99.90;;;;;;5018175;28;20084;-86
2023/07/18 07:27:44;;;;;;;19.25;6.38;;;16.40;99.90;;;;;;5017222;28;20037;-81
2023/07/18 07:30:10;;;;;;;17.95;6.82;;;16.40;99.90;;;;;;5012482;28;20050;-81
2023/07/18 07:32:36;;;;;;;17.50;6.15;;;16.50;99.90;;;;;;5000157;28;20486;-83
2023/07/18 07:35:04;;;;;;;26.05;8.30;;;16.70;99.90;;;;;;5015165;28;20103;-82
2023/07/18 07:37:30;;;;;;;20.48;7.82;;;16.60;99.90;;;;;;5010654;28;20448;-83
2023/07/18 07:39:56;;;;;;;17.08;5.78;;;17.00;99.90;;;;;;5013227;28;20519;-82
2023/07/18 07:42:21;;;;;;;15.38;6.03;;;16.70;99.90;;;;;;4992141;28;20053;-80
2023/07/18 07:44:48;;;;;;;22.23;6.15;;;16.80;99.90;;;;;;5018045;28;20352;-81
2023/07/18 07:47:14;;;;;;;23.75;7.90;;;16.90;99.90;;;;;;5014558;28;20046;-77
2023/07/18 07:49:39;;;;;;;16.65;6.25;;;17.10;99.90;;;;;;5030404;28;20044;-78
2023/07/18 07:52:05;;;;;;;21.48;6.22;;;17.00;99.90;;;;;;5016141;28;20046;-78
2023/07/18 07:54:31;;;;;;;14.10;5.93;;;17.10;99.90;;;;;;5013985;28;20525;-82
2023/07/18 07:56:57;;;;;;;20.05;6.53;;;17.30;99.90;;;;;;5001883;28;20037;-85
2023/07/18 07:59:22;;;;;;;19.33;5.85;;;17.20;99.90;;;;;;5015171;28;20084;-83
2023/07/18 08:01:48;;;;;;;16.17;6.05;;;17.30;99.90;;;;;;5019979;28;20201;-76
2023/07/18 08:04:14;;;;;;;16.52;5.68;;;17.40;99.90;;;;;;5026873;28;20109;-86
2023/07/18 08:06:39;;;;;;;15.55;5.65;;;17.40;99.90;;;;;;5015718;28;20080;-88
2023/07/18 08:09:05;;;;;;;22.20;5.45;;;17.40;99.90;;;;;;5022757;28;20049;-83
2023/07/18 08:11:31;;;;;;;14.77;5.32;;;17.40;99.90;;;;;;5015843;28;20468;-87
2023/07/18 08:13:57;;;;;;;14.75;5.10;;;18.00;99.90;;;;;;5014685;28;20037;-88
2023/07/18 08:16:23;;;;;;;17.08;5.10;;;17.50;99.90;;;;;;5014124;28;20084;-88
2023/07/18 08:18:48;;;;;;;17.27;5.75;;;17.60;99.90;;;;;;5020055;28;20120;-87
2023/07/18 08:21:14;;;;;;;16.27;4.47;;;17.60;99.90;;;;;;5010799;28;20120;-86
2023/07/18 08:23:39;;;;;;;13.75;4.80;;;17.70;99.90;;;;;;5019340;28;20038;-87
2023/07/18 08:26:05;;;;;;;15.20;5.20;;;18.40;99.90;;;;;;5013065;28;20119;-86
2023/07/18 08:28:31;;;;;;;9.68;4.13;;;18.50;99.90;;;;;;5016825;28;20084;-89
2023/07/18 08:30:56;;;;;;;13.00;3.50;;;18.00;99.90;;;;;;5007745;28;20393;-86
2023/07/18 08:33:24;;;;;;;8.25;3.03;;;18.10;99.90;;;;;;5016725;28;20121;-83
2023/07/18 08:35:50;;;;;;;10.60;3.47;;;18.10;99.90;;;;;;4997635;28;20120;-84
2023/07/18 08:38:16;;;;;;;10.60;3.45;;;18.20;99.90;;;;;;5018387;28;20065;-86
2023/07/18 08:40:43;;;;;;;9.52;3.97;;;18.30;99.90;;;;;;5018176;28;20402;-86
2023/07/18 08:43:14;;;;;;;12.40;3.88;;;18.40;99.90;;;;;;5021536;28;20053;-88
2023/07/18 08:45:40;;;;;;;12.32;3.53;;;18.40;99.90;;;;;;4996913;28;20398;-87
2023/07/18 08:48:06;;;;;;;14.98;2.88;;;18.40;99.90;;;;;;5019655;28;20504;-84
2023/07/18 08:50:34;;;;;;;11.23;2.47;;;18.50;99.90;;;;;;5014771;28;20042;-85
2023/07/18 08:53:00;;;;;;;7.05;2.10;;;18.60;99.90;;;;;;5012162;28;20045;-81
2023/07/18 08:55:29;;;;;;;19.17;8.15;;;18.60;99.90;;;;;;5015623;28;20034;-88
2023/07/18 08:57:55;;;;;;;9.60;2.70;;;18.70;99.90;;;;;;5011729;28;20041;-84
2023/07/18 09:00:21;;;;;;;4.45;1.25;;;18.80;99.90;;;;;;5015725;28;20394;-87
2023/07/18 09:02:50;;;;;;;10.93;2.65;;;18.90;99.90;;;;;;4996411;28;20117;-89
2023/07/18 09:05:35;;;;;;;8.68;2.20;;;19.00;99.90;;;;;;4999843;28;20464;-87
2023/07/18 09:08:02;;;;;;;9.18;2.20;;;19.00;99.90;;;;;;5017271;28;20037;-76
2023/07/18 09:10:29;;;;;;;8.82;2.25;;;19.10;99.90;;;;;;5019759;28;20564;-78
2023/07/18 09:13:07;;;;;;;8.60;2.30;;;19.00;99.90;;;;;;5022487;28;20367;-76
2023/07/18 09:15:37;;;;;;;10.00;2.05;;;19.10;99.90;;;;;;5016009;28;20149;-77
2023/07/18 09:18:05;;;;;;;8.65;2.40;;;19.00;99.90;;;;;;5022220;28;20050;-77
2023/07/18 09:20:32;;;;;;;8.25;1.95;;;19.00;99.90;;;;;;5022181;28;20029;-77
2023/07/18 09:22:59;;;;;;;9.85;1.88;;;19.10;99.90;;;;;;5027789;28;20052;-76
2023/07/18 09:25:26;;;;;;;5.47;1.60;;;19.10;99.90;;;;;;5020494;28;20091;-87
2023/07/18 09:27:53;;;;;;;8.85;2.03;;;19.20;99.90;;;;;;5033868;28;20070;-85
2023/07/18 09:30:22;;;;;;;8.32;1.85;;;19.30;99.90;;;;;;4991588;28;20120;-86
2023/07/18 09:32:52;;;;;;;9.88;2.08;;;19.30;99.90;;;;;;5019367;28;20049;-87
2023/07/18 09:35:17;;;;;;;9.20;2.65;;;19.30;99.90;;;;;;5019496;28;20041;-88
2023/07/18 09:37:45;;;;;;;13.88;3.08;;;19.30;99.90;;;;;;5020059;28;20112;-79
2023/07/18 09:40:16;;;;;;;12.40;2.60;;;19.30;99.90;;;;;;5019930;28;20467;-85
2023/07/18 09:42:46;;;;;;;13.38;2.88;;;19.30;99.90;;;;;;5013710;28;20041;-78
2023/07/18 09:45:16;;;;;;;13.15;2.75;;;19.30;99.90;;;;;;4974920;28;20050;-81
2023/07/18 09:47:42;;;;;;;10.75;3.30;;;19.30;99.90;;;;;;5023805;28;20069;-83
2023/07/18 09:50:12;;;;;;;40.95;20.63;;;19.40;99.90;;;;;;5014571;28;20034;-88
2023/07/18 09:52:49;;;;;;;12.60;4.75;;;19.50;99.90;;;;;;5022625;28;20092;-88
2023/07/18 09:55:24;;;;;;;12.63;2.30;;;19.50;99.90;;;;;;5012232;28;20065;-87
2023/07/18 09:57:53;;;;;;;8.05;2.15;;;19.60;99.90;;;;;;5019452;28;20509;-87
2023/07/18 10:00:22;;;;;;;6.38;1.92;;;19.70;99.90;;;;;;5024189;28;20074;-85
2023/07/18 10:02:48;;;;;;;8.23;2.28;;;19.80;99.90;;;;;;5014877;28;20088;-86
2023/07/18 10:05:15;;;;;;;11.20;2.85;;;19.90;99.90;;;;;;5019646;28;20041;-85
2023/07/18 10:07:43;;;;;;;8.20;2.55;;;20.10;99.90;;;;;;5019978;28;20081;-87
2023/07/18 10:10:10;;;;;;;10.15;2.58;;;20.10;99.90;;;;;;5016695;28;20030;-89
2023/07/18 10:12:37;;;;;;;11.45;2.92;;;20.20;99.90;;;;;;5007866;28;20128;-80
2023/07/18 10:15:04;;;;;;;9.57;2.63;;;20.20;99.90;;;;;;5020428;28;20049;-88
2023/07/18 10:17:35;;;;;;;8.60;2.20;;;20.20;99.90;;;;;;5019363;28;20132;-86
2023/07/18 10:20:10;;;;;;;8.82;2.05;;;20.20;99.90;;;;;;5023284;28;20091;-78
2023/07/18 10:22:36;;;;;;;7.72;2.25;;;20.10;99.90;;;;;;5019068;28;20040;-85
2023/07/18 10:25:06;;;;;;;7.80;2.35;;;20.10;99.90;;;;;;5019028;28;20065;-87
2023/07/18 10:27:40;;;;;;;8.95;2.95;;;20.00;99.90;;;;;;4319795;28;10000676;-85
2023/07/18 10:30:07;;;;;;;;;;;20.00;99.90;;;;;;5018791;28;20045;-84
2023/07/18 10:32:34;;;;;;;8.57;2.70;;;20.10;99.90;;;;;;5023171;28;19929;-84
2023/07/18 10:35:04;;;;;;;8.00;2.38;;;20.10;99.90;;;;;;5017239;28;20557;-82
2023/07/18 10:37:30;;;;;;;10.13;2.33;;;20.10;99.90;;;;;;5021013;28;20065;-85
2023/07/18 10:39:56;;;;;;;8.70;2.40;;;20.20;99.90;;;;;;4999434;28;20152;-80
2023/07/18 10:42:28;;;;;;;6.13;1.58;;;20.30;99.90;;;;;;4992517;28;20042;-85
2023/07/18 10:45:03;;;;;;;10.77;2.10;;;20.30;99.90;;;;;;5009641;28;20338;-84
2023/07/18 10:47:29;;;;;;;8.70;1.88;;;20.40;99.90;;;;;;5015793;28;20604;-84
2023/07/18 10:49:56;;;;;;;8.60;1.85;;;20.60;99.90;;;;;;5020321;28;20117;-80
2023/07/18 10:52:21;;;;;;;9.93;2.33;;;20.70;99.90;;;;;;5021813;28;20544;-80
2023/07/18 10:54:50;;;;;;;6.95;2.05;;;20.70;99.90;;;;;;5020942;28;20038;-84
2023/07/18 10:57:16;;;;;;;10.88;1.70;;;20.80;99.90;;;;;;5018796;28;20037;-77
2023/07/18 10:59:44;;;;;;;8.93;1.95;;;20.80;99.90;;;;;;5018657;28;20556;-78
2023/07/18 11:02:11;;;;;;;7.10;2.13;;;20.80;99.90;;;;;;5018120;28;20501;-82
2023/07/18 11:04:37;;;;;;;8.13;1.85;;;20.80;99.90;;;;;;5020149;28;20046;-78
2023/07/18 11:07:02;;;;;;;8.50;1.75;;;20.90;99.90;;;;;;5024058;28;20136;-87
2023/07/18 11:09:28;;;;;;;5.63;2.15;;;20.90;99.90;;;;;;5022111;28;20168;-84
2023/07/18 11:11:54;;;;;;;7.45;1.90;;;20.90;99.90;;;;;;5004168;28;20081;-82
2023/07/18 11:14:21;;;;;;;6.22;1.55;;;20.90;99.90;;;;;;5018102;28;20560;-85
2023/07/18 11:16:47;;;;;;;7.45;1.83;;;20.90;99.90;;;;;;5017115;28;20550;-86
2023/07/18 11:19:13;;;;;;;10.45;2.38;;;20.90;99.90;;;;;;5020206;28;20049;-85
2023/07/18 11:21:39;;;;;;;8.13;2.20;;;20.90;99.90;;;;;;5016666;28;20046;-84
2023/07/18 11:24:06;;;;;;;7.40;1.92;;;20.80;99.90;;;;;;5022744;28;20123;-84
2023/07/18 11:26:31;;;;;;;12.18;2.50;;;20.80;99.90;;;;;;5017419;28;20076;-85
2023/07/18 11:28:57;;;;;;;7.25;2.00;;;20.70;99.90;;;;;;5019681;28;20486;-87
2023/07/18 11:31:39;;;;;;;9.70;1.90;;;20.70;99.90;;;;;;5013431;28;20508;-86
2023/07/18 11:34:05;;;;;;;8.82;2.15;;;20.70;99.90;;;;;;5019655;28;20125;-85
2023/07/18 11:36:33;;;;;;;9.43;2.00;;;20.60;99.90;;;;;;5002567;28;20157;-80
2023/07/18 11:39:02;;;;;;;12.60;2.40;;;20.50;99.90;;;;;;5017533;28;20567;-80
2023/07/18 11:41:34;;;;;;;6.25;1.70;;;20.50;99.90;;;;;;5004551;28;20041;-76
2023/07/18 11:44:04;;;;;;;7.13;1.30;;;20.50;99.90;;;;;;5021048;28;20045;-76
2023/07/18 11:46:36;;;;;;;7.85;1.35;;;20.50;99.90;;;;;;5002657;28;20516;-81
2023/07/18 11:49:03;;;;;;;6.95;1.85;;;20.50;99.90;;;;;;5017366;28;20084;-75
2023/07/18 11:51:29;;;;;;;4.57;1.42;;;20.50;99.90;;;;;;5001440;28;20033;-75
2023/07/18 11:53:55;;;;;;;13.63;1.75;;;20.50;99.90;;;;;;5017054;28;20048;-77
2023/07/18 11:56:21;;;;;;;10.18;3.13;;;20.60;99.90;;;;;;5019341;28;20050;-80
2023/07/18 11:58:47;;;;;;;8.00;1.80;;;20.50;99.90;;;;;;5016706;28;20034;-77
2023/07/18 12:01:12;;;;;;;7.88;2.33;;;20.50;99.90;;;;;;5017014;28;20077;-79
2023/07/18 12:03:38;;;;;;;5.45;1.60;;;20.50;99.90;;;;;;5017365;28;20049;-79
2023/07/18 12:06:03;;;;;;;6.28;1.67;;;20.40;99.90;;;;;;5017850;28;20044;-79
2023/07/18 12:08:29;;;;;;;5.57;1.23;;;20.40;99.90;;;;;;5017824;28;20034;-83
2023/07/18 12:10:55;;;;;;;8.50;1.42;;;20.50;99.90;;;;;;5017988;28;20044;-82
2023/07/18 12:13:21;;;;;;;6.15;1.27;;;20.50;99.90;;;;;;5015222;28;20084;-83
2023/07/18 12:15:47;;;;;;;7.90;1.38;;;20.50;99.90;;;;;;5000667;28;20041;-84
2023/07/18 12:18:13;;;;;;;3.17;1.00;;;20.50;99.90;;;;;;5018779;28;20053;-80
2023/07/18 12:20:38;;;;;;;5.82;1.55;;;20.60;99.90;;;;;;5018269;28;20030;-81
2023/07/18 12:23:04;;;;;;;7.22;1.48;;;20.60;99.90;;;;;;5018873;28;20045;-79
2023/07/18 12:25:31;;;;;;;6.65;1.60;;;20.50;99.90;;;;;;4997223;28;20046;-79
2023/07/18 12:28:00;;;;;;;6.72;1.73;;;20.70;99.90;;;;;;5018464;28;20057;-80
2023/07/18 12:30:26;;;;;;;6.38;1.20;;;20.70;99.90;;;;;;5015978;28;20066;-82
2023/07/18 12:32:53;;;;;;;6.10;1.40;;;20.70;99.90;;;;;;5017609;28;20076;-83
2023/07/18 12:35:19;;;;;;;7.07;1.70;;;20.70;99.90;;;;;;5003620;28;20092;-83
2023/07/18 12:37:46;;;;;;;4.72;1.10;;;20.70;99.90;;;;;;5023683;28;20053;-85